sensor_id;sensor_type;location;lat;lon;timestamp;P1;durP1;ratioP1;P2;durP2;ratioP2
17169;SDS011;8700;48.222;16.342;2022-10-16T00:00:01;64.55;;;57.90;;
17169;SDS011;8700;48.222;16.342;2022-10-16T00:03:23;66.45;;;59.85;;
17169;SDS011;8700;48.222;16.342;2022-10-16T00:06:44;66.68;;;60.00;;
17169;SDS011;8700;48.222;16.342;2022-10-16T00:10:06;67.60;;;60.67;;
17169;SDS011;8700;48.222;16.342;2022-10-16T00:13:32;67.78;;;60.70;;
17169;SDS011;8700;48.222;16.342;2022-10-16T00:16:54;66.82;;;59.72;;
17169;SDS011;8700;48.222;16.342;2022-10-16T00:20:16;66.15;;;59.50;;
17169;SDS011;8700;48.222;16.342;2022-10-16T00:23:37;67.22;;;60.25;;
17169;SDS011;8700;48.222;16.342;2022-10-16T00:26:59;67.22;;;59.67;;
17169;SDS011;8700;48.222;16.342;2022-10-16T00:30:22;66.82;;;59.83;;
17169;SDS011;8700;48.222;16.342;2022-10-16T00:33:43;69.53;;;62.10;;
17169;SDS011;8700;48.222;16.342;2022-10-16T00:37:05;66.15;;;59.17;;
17169;SDS011;8700;48.222;16.342;2022-10-16T00:40:26;67.40;;;60.40;;
17169;SDS011;8700;48.222;16.342;2022-10-16T00:43:49;67.65;;;60.50;;
17169;SDS011;8700;48.222;16.342;2022-10-16T00:47:15;65.28;;;58.70;;
17169;SDS011;8700;48.222;16.342;2022-10-16T00:50:39;73.63;;;65.63;;
17169;SDS011;8700;48.222;16.342;2022-10-16T00:54:03;62.75;;;56.58;;
17169;SDS011;8700;48.222;16.342;2022-10-16T00:57:27;66.63;;;59.58;;
17169;SDS011;8700;48.222;16.342;2022-10-16T01:00:49;71.45;;;63.83;;
17169;SDS011;8700;48.222;16.342;2022-10-16T01:04:11;74.45;;;64.13;;
17169;SDS011;8700;48.222;16.342;2022-10-16T01:07:36;75.03;;;65.15;;
17169;SDS011;8700;48.222;16.342;2022-10-16T01:11:07;67.68;;;60.35;;
17169;SDS011;8700;48.222;16.342;2022-10-16T01:14:40;64.93;;;58.03;;
17169;SDS011;8700;48.222;16.342;2022-10-16T01:18:07;68.22;;;58.47;;
17169;SDS011;8700;48.222;16.342;2022-10-16T01:21:35;67.30;;;60.17;;
17169;SDS011;8700;48.222;16.342;2022-10-16T01:25:00;66.50;;;59.22;;
17169;SDS011;8700;48.222;16.342;2022-10-16T01:28:32;67.32;;;60.38;;
17169;SDS011;8700;48.222;16.342;2022-10-16T01:32:00;64.28;;;57.42;;
17169;SDS011;8700;48.222;16.342;2022-10-16T01:35:26;70.43;;;61.65;;
17169;SDS011;8700;48.222;16.342;2022-10-16T01:38:51;70.13;;;62.47;;
17169;SDS011;8700;48.222;16.342;2022-10-16T01:42:15;71.80;;;64.05;;
17169;SDS011;8700;48.222;16.342;2022-10-16T01:45:41;70.43;;;63.22;;
17169;SDS011;8700;48.222;16.342;2022-10-16T01:49:06;67.20;;;59.83;;
17169;SDS011;8700;48.222;16.342;2022-10-16T01:52:30;67.32;;;60.50;;
17169;SDS011;8700;48.222;16.342;2022-10-16T01:55:55;68.32;;;61.15;;
17169;SDS011;8700;48.222;16.342;2022-10-16T01:59:19;69.85;;;62.50;;
17169;SDS011;8700;48.222;16.342;2022-10-16T02:02:45;69.78;;;62.33;;
17169;SDS011;8700;48.222;16.342;2022-10-16T02:06:09;67.05;;;59.80;;
17169;SDS011;8700;48.222;16.342;2022-10-16T02:09:32;68.53;;;60.35;;
17169;SDS011;8700;48.222;16.342;2022-10-16T02:12:56;67.28;;;60.15;;
17169;SDS011;8700;48.222;16.342;2022-10-16T02:16:21;65.22;;;58.60;;
17169;SDS011;8700;48.222;16.342;2022-10-16T02:19:54;63.20;;;56.40;;
17169;SDS011;8700;48.222;16.342;2022-10-16T02:23:18;67.63;;;60.38;;
17169;SDS011;8700;48.222;16.342;2022-10-16T02:26:45;63.05;;;56.35;;
17169;SDS011;8700;48.222;16.342;2022-10-16T02:30:12;61.28;;;55.08;;
17169;SDS011;8700;48.222;16.342;2022-10-16T02:33:37;59.88;;;53.58;;
17169;SDS011;8700;48.222;16.342;2022-10-16T02:37:02;60.13;;;53.65;;
17169;SDS011;8700;48.222;16.342;2022-10-16T02:40:26;61.00;;;54.70;;
17169;SDS011;8700;48.222;16.342;2022-10-16T02:43:48;59.95;;;53.47;;
17169;SDS011;8700;48.222;16.342;2022-10-16T02:47:09;57.80;;;52.00;;
17169;SDS011;8700;48.222;16.342;2022-10-16T02:50:31;57.85;;;51.72;;
17169;SDS011;8700;48.222;16.342;2022-10-16T02:53:54;57.38;;;51.38;;
17169;SDS011;8700;48.222;16.342;2022-10-16T02:57:15;55.83;;;49.90;;
17169;SDS011;8700;48.222;16.342;2022-10-16T03:00:37;58.95;;;52.88;;
17169;SDS011;8700;48.222;16.342;2022-10-16T03:03:58;56.35;;;50.45;;
17169;SDS011;8700;48.222;16.342;2022-10-16T03:07:19;58.33;;;52.03;;
17169;SDS011;8700;48.222;16.342;2022-10-16T03:10:42;58.03;;;51.65;;
17169;SDS011;8700;48.222;16.342;2022-10-16T03:14:03;61.67;;;55.10;;
17169;SDS011;8700;48.222;16.342;2022-10-16T03:17:25;58.78;;;52.95;;
17169;SDS011;8700;48.222;16.342;2022-10-16T03:20:46;55.15;;;49.72;;
17169;SDS011;8700;48.222;16.342;2022-10-16T03:24:07;59.65;;;53.35;;
17169;SDS011;8700;48.222;16.342;2022-10-16T03:27:30;56.70;;;50.83;;
17169;SDS011;8700;48.222;16.342;2022-10-16T03:30:51;59.25;;;53.05;;
17169;SDS011;8700;48.222;16.342;2022-10-16T03:34:12;54.38;;;48.95;;
17169;SDS011;8700;48.222;16.342;2022-10-16T03:37:34;57.10;;;51.30;;
17169;SDS011;8700;48.222;16.342;2022-10-16T03:40:55;56.10;;;50.40;;
17169;SDS011;8700;48.222;16.342;2022-10-16T03:44:18;52.38;;;46.88;;
17169;SDS011;8700;48.222;16.342;2022-10-16T03:47:39;53.95;;;48.20;;
17169;SDS011;8700;48.222;16.342;2022-10-16T03:51:01;60.50;;;54.40;;
17169;SDS011;8700;48.222;16.342;2022-10-16T03:54:22;60.65;;;54.78;;
17169;SDS011;8700;48.222;16.342;2022-10-16T03:57:43;56.80;;;50.90;;
17169;SDS011;8700;48.222;16.342;2022-10-16T04:01:06;55.28;;;49.33;;
17169;SDS011;8700;48.222;16.342;2022-10-16T04:04:27;51.67;;;46.33;;
17169;SDS011;8700;48.222;16.342;2022-10-16T04:07:49;50.28;;;45.17;;
17169;SDS011;8700;48.222;16.342;2022-10-16T04:11:10;48.92;;;43.80;;
17169;SDS011;8700;48.222;16.342;2022-10-16T04:14:32;50.60;;;45.40;;
17169;SDS011;8700;48.222;16.342;2022-10-16T04:17:54;46.63;;;41.97;;
17169;SDS011;8700;48.222;16.342;2022-10-16T04:21:16;49.03;;;43.85;;
17169;SDS011;8700;48.222;16.342;2022-10-16T04:24:37;47.75;;;42.88;;
17169;SDS011;8700;48.222;16.342;2022-10-16T04:27:58;47.42;;;42.50;;
17169;SDS011;8700;48.222;16.342;2022-10-16T04:31:19;47.05;;;42.25;;
17169;SDS011;8700;48.222;16.342;2022-10-16T04:34:42;46.67;;;41.85;;
17169;SDS011;8700;48.222;16.342;2022-10-16T04:38:03;46.38;;;41.67;;
17169;SDS011;8700;48.222;16.342;2022-10-16T04:41:25;46.00;;;41.13;;
17169;SDS011;8700;48.222;16.342;2022-10-16T04:44:46;45.42;;;40.85;;
17169;SDS011;8700;48.222;16.342;2022-10-16T04:48:08;47.17;;;42.38;;
17169;SDS011;8700;48.222;16.342;2022-10-16T04:51:30;44.80;;;40.40;;
17169;SDS011;8700;48.222;16.342;2022-10-16T04:54:52;47.53;;;42.85;;
17169;SDS011;8700;48.222;16.342;2022-10-16T04:58:14;52.67;;;47.38;;
17169;SDS011;8700;48.222;16.342;2022-10-16T05:01:36;46.83;;;42.13;;
17169;SDS011;8700;48.222;16.342;2022-10-16T05:04:57;45.20;;;40.70;;
17169;SDS011;8700;48.222;16.342;2022-10-16T05:08:20;44.33;;;39.35;;
17169;SDS011;8700;48.222;16.342;2022-10-16T05:11:41;44.88;;;40.05;;
17169;SDS011;8700;48.222;16.342;2022-10-16T05:15:02;46.25;;;41.20;;
17169;SDS011;8700;48.222;16.342;2022-10-16T05:18:24;44.53;;;39.95;;
17169;SDS011;8700;48.222;16.342;2022-10-16T05:21:46;44.17;;;39.63;;
17169;SDS011;8700;48.222;16.342;2022-10-16T05:25:08;44.58;;;39.90;;
17169;SDS011;8700;48.222;16.342;2022-10-16T05:28:33;47.58;;;42.72;;
17169;SDS011;8700;48.222;16.342;2022-10-16T05:31:55;42.80;;;38.58;;
17169;SDS011;8700;48.222;16.342;2022-10-16T05:35:16;47.17;;;40.53;;
17169;SDS011;8700;48.222;16.342;2022-10-16T05:38:39;42.05;;;37.58;;
17169;SDS011;8700;48.222;16.342;2022-10-16T05:42:01;41.10;;;36.75;;
17169;SDS011;8700;48.222;16.342;2022-10-16T05:45:27;40.38;;;36.17;;
17169;SDS011;8700;48.222;16.342;2022-10-16T05:48:52;37.28;;;33.58;;
17169;SDS011;8700;48.222;16.342;2022-10-16T05:52:13;38.15;;;33.58;;
17169;SDS011;8700;48.222;16.342;2022-10-16T05:55:34;36.17;;;32.28;;
17169;SDS011;8700;48.222;16.342;2022-10-16T05:58:57;37.63;;;33.65;;
17169;SDS011;8700;48.222;16.342;2022-10-16T06:02:18;38.30;;;34.42;;
17169;SDS011;8700;48.222;16.342;2022-10-16T06:05:40;39.97;;;35.92;;
17169;SDS011;8700;48.222;16.342;2022-10-16T06:09:02;42.05;;;37.65;;
17169;SDS011;8700;48.222;16.342;2022-10-16T06:12:23;42.53;;;38.42;;
17169;SDS011;8700;48.222;16.342;2022-10-16T06:15:46;43.90;;;39.30;;
17169;SDS011;8700;48.222;16.342;2022-10-16T06:19:07;46.35;;;41.35;;
17169;SDS011;8700;48.222;16.342;2022-10-16T06:22:28;48.22;;;42.88;;
17169;SDS011;8700;48.222;16.342;2022-10-16T06:25:50;51.15;;;45.90;;
17169;SDS011;8700;48.222;16.342;2022-10-16T06:29:11;49.45;;;44.25;;
17169;SDS011;8700;48.222;16.342;2022-10-16T06:32:34;51.63;;;46.28;;
17169;SDS011;8700;48.222;16.342;2022-10-16T06:35:59;54.45;;;48.60;;
17169;SDS011;8700;48.222;16.342;2022-10-16T06:39:22;66.35;;;52.95;;
17169;SDS011;8700;48.222;16.342;2022-10-16T06:42:43;54.60;;;48.50;;
17169;SDS011;8700;48.222;16.342;2022-10-16T06:46:05;70.07;;;53.83;;
17169;SDS011;8700;48.222;16.342;2022-10-16T06:49:29;68.25;;;57.75;;
17169;SDS011;8700;48.222;16.342;2022-10-16T06:52:50;82.47;;;60.40;;
17169;SDS011;8700;48.222;16.342;2022-10-16T06:56:13;80.18;;;64.43;;
17169;SDS011;8700;48.222;16.342;2022-10-16T06:59:35;75.93;;;62.35;;
17169;SDS011;8700;48.222;16.342;2022-10-16T07:02:56;73.82;;;59.08;;
17169;SDS011;8700;48.222;16.342;2022-10-16T07:06:20;71.95;;;57.50;;
17169;SDS011;8700;48.222;16.342;2022-10-16T07:09:42;77.43;;;59.38;;
17169;SDS011;8700;48.222;16.342;2022-10-16T07:13:04;69.90;;;54.55;;
17169;SDS011;8700;48.222;16.342;2022-10-16T07:16:27;58.22;;;51.15;;
17169;SDS011;8700;48.222;16.342;2022-10-16T07:19:50;60.97;;;53.08;;
17169;SDS011;8700;48.222;16.342;2022-10-16T07:23:14;58.85;;;52.60;;
17169;SDS011;8700;48.222;16.342;2022-10-16T07:26:35;61.83;;;52.60;;
17169;SDS011;8700;48.222;16.342;2022-10-16T07:29:58;58.65;;;52.40;;
17169;SDS011;8700;48.222;16.342;2022-10-16T07:33:19;58.72;;;51.28;;
17169;SDS011;8700;48.222;16.342;2022-10-16T07:36:41;59.90;;;52.15;;
17169;SDS011;8700;48.222;16.342;2022-10-16T07:40:09;58.65;;;52.20;;
17169;SDS011;8700;48.222;16.342;2022-10-16T07:43:32;62.80;;;56.05;;
17169;SDS011;8700;48.222;16.342;2022-10-16T07:46:54;59.63;;;53.20;;
17169;SDS011;8700;48.222;16.342;2022-10-16T07:50:15;59.72;;;53.17;;
17169;SDS011;8700;48.222;16.342;2022-10-16T07:53:37;59.15;;;52.80;;
17169;SDS011;8700;48.222;16.342;2022-10-16T07:57:00;60.08;;;53.72;;
17169;SDS011;8700;48.222;16.342;2022-10-16T08:00:21;58.00;;;52.00;;
17169;SDS011;8700;48.222;16.342;2022-10-16T08:03:42;57.75;;;51.70;;
17169;SDS011;8700;48.222;16.342;2022-10-16T08:07:06;58.13;;;52.05;;
17169;SDS011;8700;48.222;16.342;2022-10-16T08:10:28;56.92;;;50.92;;
17169;SDS011;8700;48.222;16.342;2022-10-16T08:13:52;56.58;;;50.75;;
17169;SDS011;8700;48.222;16.342;2022-10-16T08:17:14;59.22;;;52.92;;
17169;SDS011;8700;48.222;16.342;2022-10-16T08:20:35;56.47;;;50.63;;
17169;SDS011;8700;48.222;16.342;2022-10-16T08:23:57;59.20;;;53.08;;
17169;SDS011;8700;48.222;16.342;2022-10-16T08:27:19;57.67;;;51.53;;
17169;SDS011;8700;48.222;16.342;2022-10-16T08:30:42;54.28;;;48.65;;
17169;SDS011;8700;48.222;16.342;2022-10-16T08:34:03;55.33;;;49.40;;
17169;SDS011;8700;48.222;16.342;2022-10-16T08:37:24;56.70;;;51.03;;
17169;SDS011;8700;48.222;16.342;2022-10-16T08:40:50;57.08;;;51.08;;
17169;SDS011;8700;48.222;16.342;2022-10-16T08:44:24;58.33;;;52.03;;
17169;SDS011;8700;48.222;16.342;2022-10-16T08:48:04;58.05;;;51.90;;
17169;SDS011;8700;48.222;16.342;2022-10-16T08:51:34;57.08;;;50.92;;
17169;SDS011;8700;48.222;16.342;2022-10-16T08:54:57;59.88;;;53.53;;
17169;SDS011;8700;48.222;16.342;2022-10-16T08:58:22;57.40;;;51.25;;
17169;SDS011;8700;48.222;16.342;2022-10-16T09:01:49;56.92;;;51.03;;
17169;SDS011;8700;48.222;16.342;2022-10-16T09:05:19;57.92;;;51.97;;
17169;SDS011;8700;48.222;16.342;2022-10-16T09:09:09;62.05;;;54.28;;
17169;SDS011;8700;48.222;16.342;2022-10-16T09:12:46;58.92;;;52.92;;
17169;SDS011;8700;48.222;16.342;2022-10-16T09:16:14;58.47;;;52.72;;
17169;SDS011;8700;48.222;16.342;2022-10-16T09:19:41;58.92;;;52.67;;
17169;SDS011;8700;48.222;16.342;2022-10-16T09:23:17;54.53;;;49.17;;
17169;SDS011;8700;48.222;16.342;2022-10-16T09:26:39;56.97;;;51.17;;
17169;SDS011;8700;48.222;16.342;2022-10-16T09:30:01;56.88;;;51.05;;
17169;SDS011;8700;48.222;16.342;2022-10-16T09:33:33;53.20;;;47.78;;
17169;SDS011;8700;48.222;16.342;2022-10-16T09:36:58;52.63;;;47.45;;
17169;SDS011;8700;48.222;16.342;2022-10-16T09:40:26;53.40;;;48.25;;
17169;SDS011;8700;48.222;16.342;2022-10-16T09:43:52;57.42;;;51.60;;
17169;SDS011;8700;48.222;16.342;2022-10-16T09:47:16;55.78;;;50.47;;
17169;SDS011;8700;48.222;16.342;2022-10-16T09:50:40;69.30;;;62.03;;
17169;SDS011;8700;48.222;16.342;2022-10-16T09:54:10;53.33;;;48.15;;
17169;SDS011;8700;48.222;16.342;2022-10-16T09:57:36;52.88;;;47.88;;
17169;SDS011;8700;48.222;16.342;2022-10-16T10:00:57;50.50;;;45.80;;
17169;SDS011;8700;48.222;16.342;2022-10-16T10:04:19;50.45;;;45.67;;
17169;SDS011;8700;48.222;16.342;2022-10-16T10:07:42;50.13;;;45.25;;
17169;SDS011;8700;48.222;16.342;2022-10-16T10:11:05;50.45;;;45.75;;
17169;SDS011;8700;48.222;16.342;2022-10-16T10:14:30;52.08;;;47.35;;
17169;SDS011;8700;48.222;16.342;2022-10-16T10:17:56;52.63;;;47.42;;
17169;SDS011;8700;48.222;16.342;2022-10-16T10:21:18;50.85;;;46.25;;
17169;SDS011;8700;48.222;16.342;2022-10-16T10:24:39;53.38;;;48.00;;
17169;SDS011;8700;48.222;16.342;2022-10-16T10:28:09;51.97;;;46.60;;
17169;SDS011;8700;48.222;16.342;2022-10-16T10:31:55;55.35;;;49.97;;
17169;SDS011;8700;48.222;16.342;2022-10-16T10:35:27;55.70;;;50.20;;
17169;SDS011;8700;48.222;16.342;2022-10-16T10:38:58;53.55;;;48.40;;
17169;SDS011;8700;48.222;16.342;2022-10-16T10:42:22;59.92;;;54.03;;
17169;SDS011;8700;48.222;16.342;2022-10-16T10:45:48;65.45;;;58.78;;
17169;SDS011;8700;48.222;16.342;2022-10-16T10:49:19;72.30;;;64.68;;
17169;SDS011;8700;48.222;16.342;2022-10-16T10:52:53;64.15;;;56.88;;
17169;SDS011;8700;48.222;16.342;2022-10-16T10:56:23;61.30;;;54.90;;
17169;SDS011;8700;48.222;16.342;2022-10-16T11:00:10;62.90;;;56.63;;
17169;SDS011;8700;48.222;16.342;2022-10-16T11:03:48;57.30;;;51.53;;
17169;SDS011;8700;48.222;16.342;2022-10-16T11:07:31;60.40;;;54.40;;
17169;SDS011;8700;48.222;16.342;2022-10-16T11:10:57;59.25;;;53.30;;
17169;SDS011;8700;48.222;16.342;2022-10-16T11:14:23;53.08;;;48.08;;
17169;SDS011;8700;48.222;16.342;2022-10-16T11:17:52;50.33;;;45.55;;
17169;SDS011;8700;48.222;16.342;2022-10-16T11:21:18;50.65;;;45.97;;
17169;SDS011;8700;48.222;16.342;2022-10-16T11:24:43;51.75;;;47.28;;
17169;SDS011;8700;48.222;16.342;2022-10-16T11:28:09;52.10;;;47.40;;
17169;SDS011;8700;48.222;16.342;2022-10-16T11:31:35;44.67;;;40.67;;
17169;SDS011;8700;48.222;16.342;2022-10-16T11:35:00;50.50;;;46.05;;
17169;SDS011;8700;48.222;16.342;2022-10-16T11:38:29;48.13;;;43.90;;
17169;SDS011;8700;48.222;16.342;2022-10-16T11:41:59;50.30;;;45.88;;
17169;SDS011;8700;48.222;16.342;2022-10-16T11:45:25;45.97;;;42.28;;
17169;SDS011;8700;48.222;16.342;2022-10-16T11:48:52;50.63;;;46.15;;
17169;SDS011;8700;48.222;16.342;2022-10-16T11:52:22;48.90;;;44.88;;
17169;SDS011;8700;48.222;16.342;2022-10-16T11:55:49;51.38;;;47.00;;
17169;SDS011;8700;48.222;16.342;2022-10-16T11:59:15;51.20;;;46.67;;
17169;SDS011;8700;48.222;16.342;2022-10-16T12:02:48;52.47;;;47.85;;
17169;SDS011;8700;48.222;16.342;2022-10-16T12:06:23;54.53;;;49.45;;
17169;SDS011;8700;48.222;16.342;2022-10-16T12:09:51;54.03;;;49.13;;
17169;SDS011;8700;48.222;16.342;2022-10-16T12:13:28;51.58;;;46.95;;
17169;SDS011;8700;48.222;16.342;2022-10-16T12:16:55;56.97;;;51.50;;
17169;SDS011;8700;48.222;16.342;2022-10-16T12:20:25;56.70;;;51.25;;
17169;SDS011;8700;48.222;16.342;2022-10-16T12:23:51;53.50;;;48.47;;
17169;SDS011;8700;48.222;16.342;2022-10-16T12:27:20;56.80;;;51.30;;
17169;SDS011;8700;48.222;16.342;2022-10-16T12:30:51;54.20;;;48.95;;
17169;SDS011;8700;48.222;16.342;2022-10-16T12:34:19;58.45;;;52.38;;
17169;SDS011;8700;48.222;16.342;2022-10-16T12:37:44;56.53;;;50.95;;
17169;SDS011;8700;48.222;16.342;2022-10-16T12:41:07;65.00;;;57.70;;
17169;SDS011;8700;48.222;16.342;2022-10-16T12:44:34;62.35;;;56.28;;
17169;SDS011;8700;48.222;16.342;2022-10-16T12:47:56;56.88;;;51.67;;
17169;SDS011;8700;48.222;16.342;2022-10-16T12:51:24;60.75;;;55.17;;
17169;SDS011;8700;48.222;16.342;2022-10-16T12:54:56;60.03;;;54.40;;
17169;SDS011;8700;48.222;16.342;2022-10-16T12:58:31;57.58;;;51.92;;
17169;SDS011;8700;48.222;16.342;2022-10-16T13:02:09;60.53;;;54.72;;
17169;SDS011;8700;48.222;16.342;2022-10-16T13:05:54;60.25;;;54.70;;
17169;SDS011;8700;48.222;16.342;2022-10-16T13:09:33;61.35;;;55.30;;
17169;SDS011;8700;48.222;16.342;2022-10-16T13:13:05;60.42;;;54.72;;
17169;SDS011;8700;48.222;16.342;2022-10-16T13:16:48;59.80;;;54.30;;
17169;SDS011;8700;48.222;16.342;2022-10-16T13:20:19;60.90;;;55.20;;
17169;SDS011;8700;48.222;16.342;2022-10-16T13:23:46;60.20;;;54.67;;
17169;SDS011;8700;48.222;16.342;2022-10-16T13:27:18;57.80;;;52.50;;
17169;SDS011;8700;48.222;16.342;2022-10-16T13:30:51;63.67;;;57.67;;
17169;SDS011;8700;48.222;16.342;2022-10-16T13:34:14;61.80;;;55.92;;
17169;SDS011;8700;48.222;16.342;2022-10-16T13:37:38;58.30;;;52.97;;
17169;SDS011;8700;48.222;16.342;2022-10-16T13:41:00;60.97;;;55.58;;
17169;SDS011;8700;48.222;16.342;2022-10-16T13:44:24;61.30;;;55.50;;
17169;SDS011;8700;48.222;16.342;2022-10-16T13:47:45;59.33;;;53.88;;
17169;SDS011;8700;48.222;16.342;2022-10-16T13:51:11;61.83;;;55.88;;
17169;SDS011;8700;48.222;16.342;2022-10-16T13:54:35;58.75;;;53.08;;
17169;SDS011;8700;48.222;16.342;2022-10-16T13:58:04;59.40;;;53.92;;
17169;SDS011;8700;48.222;16.342;2022-10-16T14:01:28;59.95;;;54.47;;
17169;SDS011;8700;48.222;16.342;2022-10-16T14:04:50;59.75;;;54.10;;
17169;SDS011;8700;48.222;16.342;2022-10-16T14:08:13;54.85;;;49.83;;
17169;SDS011;8700;48.222;16.342;2022-10-16T14:11:36;51.17;;;46.05;;
17169;SDS011;8700;48.222;16.342;2022-10-16T14:15:04;50.45;;;45.72;;
17169;SDS011;8700;48.222;16.342;2022-10-16T14:18:38;51.40;;;46.08;;
17169;SDS011;8700;48.222;16.342;2022-10-16T14:22:01;49.42;;;44.92;;
17169;SDS011;8700;48.222;16.342;2022-10-16T14:25:24;48.53;;;43.83;;
17169;SDS011;8700;48.222;16.342;2022-10-16T14:28:47;49.17;;;44.47;;
17169;SDS011;8700;48.222;16.342;2022-10-16T14:32:21;47.72;;;42.78;;
17169;SDS011;8700;48.222;16.342;2022-10-16T14:35:46;46.13;;;41.80;;
17169;SDS011;8700;48.222;16.342;2022-10-16T14:39:19;43.83;;;39.72;;
17169;SDS011;8700;48.222;16.342;2022-10-16T14:42:42;48.33;;;43.63;;
17169;SDS011;8700;48.222;16.342;2022-10-16T14:46:06;44.50;;;40.40;;
17169;SDS011;8700;48.222;16.342;2022-10-16T14:49:32;49.25;;;44.70;;
17169;SDS011;8700;48.222;16.342;2022-10-16T14:52:55;47.83;;;42.80;;
17169;SDS011;8700;48.222;16.342;2022-10-16T14:56:17;45.67;;;41.13;;
17169;SDS011;8700;48.222;16.342;2022-10-16T14:59:40;41.58;;;37.88;;
17169;SDS011;8700;48.222;16.342;2022-10-16T15:03:03;44.33;;;39.78;;
17169;SDS011;8700;48.222;16.342;2022-10-16T15:06:25;44.15;;;39.88;;
17169;SDS011;8700;48.222;16.342;2022-10-16T15:09:48;42.45;;;38.40;;
17169;SDS011;8700;48.222;16.342;2022-10-16T15:13:11;41.70;;;37.70;;
17169;SDS011;8700;48.222;16.342;2022-10-16T15:16:33;41.38;;;37.60;;
17169;SDS011;8700;48.222;16.342;2022-10-16T15:19:54;41.95;;;38.00;;
17169;SDS011;8700;48.222;16.342;2022-10-16T15:23:19;43.13;;;38.88;;
17169;SDS011;8700;48.222;16.342;2022-10-16T15:26:43;41.08;;;37.20;;
17169;SDS011;8700;48.222;16.342;2022-10-16T15:30:06;41.47;;;37.35;;
17169;SDS011;8700;48.222;16.342;2022-10-16T15:33:27;46.53;;;40.35;;
17169;SDS011;8700;48.222;16.342;2022-10-16T15:36:52;41.63;;;37.63;;
17169;SDS011;8700;48.222;16.342;2022-10-16T15:40:14;41.50;;;37.58;;
17169;SDS011;8700;48.222;16.342;2022-10-16T15:43:38;41.33;;;37.40;;
17169;SDS011;8700;48.222;16.342;2022-10-16T15:46:59;41.88;;;37.72;;
17169;SDS011;8700;48.222;16.342;2022-10-16T15:50:21;42.42;;;38.47;;
17169;SDS011;8700;48.222;16.342;2022-10-16T15:53:42;42.35;;;38.35;;
17169;SDS011;8700;48.222;16.342;2022-10-16T15:57:05;41.42;;;37.50;;
17169;SDS011;8700;48.222;16.342;2022-10-16T16:00:28;41.72;;;37.53;;
17169;SDS011;8700;48.222;16.342;2022-10-16T16:03:52;40.92;;;36.92;;
17169;SDS011;8700;48.222;16.342;2022-10-16T16:07:13;41.75;;;37.53;;
17169;SDS011;8700;48.222;16.342;2022-10-16T16:10:35;44.63;;;40.25;;
17169;SDS011;8700;48.222;16.342;2022-10-16T16:13:56;41.88;;;38.00;;
17169;SDS011;8700;48.222;16.342;2022-10-16T16:17:19;41.28;;;37.08;;
17169;SDS011;8700;48.222;16.342;2022-10-16T16:20:40;40.22;;;36.22;;
17169;SDS011;8700;48.222;16.342;2022-10-16T16:24:02;41.95;;;37.70;;
17169;SDS011;8700;48.222;16.342;2022-10-16T16:27:27;40.10;;;36.35;;
17169;SDS011;8700;48.222;16.342;2022-10-16T16:30:50;46.15;;;41.60;;
17169;SDS011;8700;48.222;16.342;2022-10-16T16:34:13;42.40;;;38.33;;
17169;SDS011;8700;48.222;16.342;2022-10-16T16:37:34;40.63;;;36.78;;
17169;SDS011;8700;48.222;16.342;2022-10-16T16:40:55;46.90;;;42.28;;
17169;SDS011;8700;48.222;16.342;2022-10-16T16:44:17;43.90;;;39.42;;
17169;SDS011;8700;48.222;16.342;2022-10-16T16:47:38;41.83;;;37.83;;
17169;SDS011;8700;48.222;16.342;2022-10-16T16:51:03;41.25;;;37.25;;
17169;SDS011;8700;48.222;16.342;2022-10-16T16:54:25;42.85;;;38.65;;
17169;SDS011;8700;48.222;16.342;2022-10-16T16:57:47;43.30;;;38.90;;
17169;SDS011;8700;48.222;16.342;2022-10-16T17:01:09;46.85;;;42.25;;
17169;SDS011;8700;48.222;16.342;2022-10-16T17:04:30;42.20;;;37.88;;
17169;SDS011;8700;48.222;16.342;2022-10-16T17:07:53;39.50;;;35.40;;
17169;SDS011;8700;48.222;16.342;2022-10-16T17:11:15;42.20;;;37.70;;
17169;SDS011;8700;48.222;16.342;2022-10-16T17:14:39;45.95;;;41.42;;
17169;SDS011;8700;48.222;16.342;2022-10-16T17:18:00;48.67;;;43.60;;
17169;SDS011;8700;48.222;16.342;2022-10-16T17:21:21;46.30;;;41.67;;
17169;SDS011;8700;48.222;16.342;2022-10-16T17:24:45;43.22;;;39.00;;
17169;SDS011;8700;48.222;16.342;2022-10-16T17:28:09;45.20;;;40.80;;
17169;SDS011;8700;48.222;16.342;2022-10-16T17:31:32;48.35;;;43.67;;
17169;SDS011;8700;48.222;16.342;2022-10-16T17:34:54;43.80;;;39.55;;
17169;SDS011;8700;48.222;16.342;2022-10-16T17:38:16;47.22;;;42.60;;
17169;SDS011;8700;48.222;16.342;2022-10-16T17:41:39;54.72;;;49.00;;
17169;SDS011;8700;48.222;16.342;2022-10-16T17:45:00;51.97;;;46.85;;
17169;SDS011;8700;48.222;16.342;2022-10-16T17:48:22;50.78;;;45.78;;
17169;SDS011;8700;48.222;16.342;2022-10-16T17:51:43;56.83;;;50.95;;
17169;SDS011;8700;48.222;16.342;2022-10-16T17:55:05;51.80;;;46.83;;
17169;SDS011;8700;48.222;16.342;2022-10-16T17:58:29;52.63;;;47.35;;
17169;SDS011;8700;48.222;16.342;2022-10-16T18:01:50;55.00;;;49.47;;
17169;SDS011;8700;48.222;16.342;2022-10-16T18:05:12;58.50;;;52.60;;
17169;SDS011;8700;48.222;16.342;2022-10-16T18:08:33;52.38;;;47.15;;
17169;SDS011;8700;48.222;16.342;2022-10-16T18:11:55;52.85;;;47.38;;
17169;SDS011;8700;48.222;16.342;2022-10-16T18:15:20;52.63;;;47.22;;
17169;SDS011;8700;48.222;16.342;2022-10-16T18:18:42;50.63;;;45.83;;
17169;SDS011;8700;48.222;16.342;2022-10-16T18:22:04;50.17;;;45.08;;
17169;SDS011;8700;48.222;16.342;2022-10-16T18:25:25;50.33;;;45.05;;
17169;SDS011;8700;48.222;16.342;2022-10-16T18:28:46;51.75;;;46.10;;
17169;SDS011;8700;48.222;16.342;2022-10-16T18:32:10;53.50;;;47.15;;
17169;SDS011;8700;48.222;16.342;2022-10-16T18:35:33;54.97;;;49.25;;
17169;SDS011;8700;48.222;16.342;2022-10-16T18:38:55;57.33;;;51.53;;
17169;SDS011;8700;48.222;16.342;2022-10-16T18:42:17;51.08;;;45.83;;
17169;SDS011;8700;48.222;16.342;2022-10-16T18:45:39;54.08;;;48.80;;
17169;SDS011;8700;48.222;16.342;2022-10-16T18:49:02;58.47;;;52.70;;
17169;SDS011;8700;48.222;16.342;2022-10-16T18:52:24;53.08;;;47.65;;
17169;SDS011;8700;48.222;16.342;2022-10-16T18:55:49;53.05;;;47.65;;
17169;SDS011;8700;48.222;16.342;2022-10-16T18:59:12;49.92;;;45.03;;
17169;SDS011;8700;48.222;16.342;2022-10-16T19:02:33;48.85;;;43.95;;
17169;SDS011;8700;48.222;16.342;2022-10-16T19:05:59;52.85;;;47.17;;
17169;SDS011;8700;48.222;16.342;2022-10-16T19:09:21;46.67;;;41.97;;
17169;SDS011;8700;48.222;16.342;2022-10-16T19:12:44;48.70;;;43.60;;
17169;SDS011;8700;48.222;16.342;2022-10-16T19:16:08;44.92;;;40.33;;
17169;SDS011;8700;48.222;16.342;2022-10-16T19:19:31;52.45;;;47.15;;
17169;SDS011;8700;48.222;16.342;2022-10-16T19:22:53;51.13;;;46.03;;
17169;SDS011;8700;48.222;16.342;2022-10-16T19:26:17;48.65;;;43.60;;
17169;SDS011;8700;48.222;16.342;2022-10-16T19:29:39;46.22;;;41.35;;
17169;SDS011;8700;48.222;16.342;2022-10-16T19:33:01;50.55;;;45.58;;
17169;SDS011;8700;48.222;16.342;2022-10-16T19:36:22;50.85;;;45.65;;
17169;SDS011;8700;48.222;16.342;2022-10-16T19:39:49;46.85;;;42.15;;
17169;SDS011;8700;48.222;16.342;2022-10-16T19:43:10;47.20;;;42.25;;
17169;SDS011;8700;48.222;16.342;2022-10-16T19:46:32;46.97;;;42.38;;
17169;SDS011;8700;48.222;16.342;2022-10-16T19:49:53;46.72;;;42.13;;
17169;SDS011;8700;48.222;16.342;2022-10-16T19:53:15;45.95;;;41.25;;